Time;durP1;ratioP1;P1;durP2;ratioP2;P2;SDS_P1;SDS_P2;PMS_P1;PMS_P2;Temp;Humidity;BMP_temperature;BMP_pressure;BME280_temperature;BME280_humidity;BME280_pressure;Samples;Min_cycle;Max_cycle;Signal;HPM_P1;HPM_P2
2024/01/23 00:00:22;;;;;;;9.17;4.47;;;15.40;55.40;16.70;100870.00;;;;5032415;28;20186;-53
2024/01/23 00:02:47;;;;;;;10.53;4.53;;;15.30;55.20;16.70;100862.00;;;;5044187;28;20625;-53
2024/01/23 00:05:13;;;;;;;8.43;3.90;;;15.30;55.10;16.70;100894.00;;;;5037169;28;20208;-52
2024/01/23 00:07:39;;;;;;;7.33;3.73;;;15.30;55.50;16.60;100884.00;;;;5037735;28;20179;-53
2024/01/23 00:10:05;;;;;;;8.27;4.00;;;15.30;55.50;16.60;100905.00;;;;5037363;28;20175;-53
2024/01/23 00:12:31;;;;;;;7.77;4.13;;;15.30;55.50;16.60;100885.00;;;;5036981;28;20177;-53
2024/01/23 00:14:58;;;;;;;7.30;3.83;;;15.30;55.50;16.60;100888.00;;;;5036346;28;20661;-52
2024/01/23 00:17:24;;;;;;;8.30;3.93;;;15.30;55.50;16.60;100893.00;;;;5040272;28;20175;-52
2024/01/23 00:19:50;;;;;;;8.97;3.97;;;15.30;55.50;16.60;100867.00;;;;5037540;28;20305;-51
2024/01/23 00:22:16;;;;;;;8.50;4.07;;;15.20;55.50;16.60;100893.00;;;;5035314;28;20775;-52
2024/01/23 00:24:41;;;;;;;9.50;4.10;;;15.30;55.50;16.50;100890.00;;;;5035460;28;20833;-52
2024/01/23 00:27:08;;;;;;;8.77;4.00;;;15.20;55.20;16.50;100899.00;;;;5036046;28;20218;-52
2024/01/23 00:29:34;;;;;;;8.90;4.20;;;15.20;55.30;16.50;100902.00;;;;5035455;28;20573;-52
2024/01/23 00:32:01;;;;;;;9.87;4.33;;;15.20;55.20;16.50;100906.00;;;;5036536;28;20337;-52
2024/01/23 00:34:27;;;;;;;8.67;3.80;;;15.10;55.20;16.50;100901.00;;;;5034656;28;20181;-52
2024/01/23 00:36:53;;;;;;;11.10;4.23;;;15.10;55.10;16.50;100907.00;;;;5035518;28;20695;-52
2024/01/23 00:39:18;;;;;;;9.27;4.23;;;15.10;55.30;16.40;100910.00;;;;5034863;28;20210;-53
2024/01/23 00:41:44;;;;;;;8.33;3.70;;;15.10;55.40;16.40;100909.00;;;;5036456;28;20200;-52
2024/01/23 00:44:10;;;;;;;9.77;3.80;;;15.10;55.30;16.40;100908.00;;;;5032876;28;20217;-51
2024/01/23 00:46:35;;;;;;;9.90;3.87;;;15.10;55.40;16.40;100908.00;;;;5035178;28;20195;-52
2024/01/23 00:49:01;;;;;;;9.97;3.87;;;15.10;55.60;16.40;100948.00;;;;5035978;28;20245;-52
2024/01/23 00:51:28;;;;;;;9.60;4.03;;;15.00;55.70;16.30;100948.00;;;;5034621;28;20176;-52
2024/01/23 00:53:54;;;;;;;8.33;3.33;;;15.00;55.80;16.30;100956.00;;;;5036951;28;20241;-52
2024/01/23 00:56:20;;;;;;;7.67;3.80;;;15.10;55.90;16.30;100967.00;;;;5034445;28;20633;-52
2024/01/23 00:58:45;;;;;;;10.50;4.00;;;15.00;55.80;16.30;100967.00;;;;5036702;28;20184;-52
2024/01/23 01:01:11;;;;;;;8.20;3.93;;;15.00;55.80;16.30;100974.00;;;;5034106;28;20179;-53
2024/01/23 01:03:37;;;;;;;9.13;4.00;;;15.00;55.90;16.40;100998.00;;;;5034223;28;20187;-53
2024/01/23 01:06:03;;;;;;;8.70;4.00;;;15.10;56.00;16.30;100997.00;;;;5034500;28;20256;-54
2024/01/23 01:08:29;;;;;;;10.30;4.00;;;15.10;56.00;16.30;100992.00;;;;5032508;28;20176;-53
2024/01/23 01:10:55;;;;;;;7.83;3.93;;;15.10;56.00;16.30;100986.00;;;;5035455;28;20847;-53
2024/01/23 01:13:21;;;;;;;7.97;4.13;;;15.00;55.90;16.30;100993.00;;;;5042142;28;20175;-55
2024/01/23 01:15:46;;;;;;;7.93;3.83;;;15.00;56.00;16.30;100999.00;;;;5040020;28;20668;-53
2024/01/23 01:18:12;;;;;;;8.67;3.90;;;15.00;56.00;16.30;101002.00;;;;5033405;28;20175;-53
2024/01/23 01:20:38;;;;;;;9.17;4.13;;;15.00;56.20;16.30;101007.00;;;;5034074;28;20704;-52
2024/01/23 01:23:03;;;;;;;9.37;4.10;;;15.00;56.10;16.30;101014.00;;;;5032960;28;20206;-53
2024/01/23 01:25:29;;;;;;;9.03;4.23;;;15.00;56.10;16.30;101033.00;;;;5032787;28;20229;-53
2024/01/23 01:27:55;;;;;;;7.67;3.90;;;15.00;56.20;16.30;101050.00;;;;5035192;28;20175;-52
2024/01/23 01:30:28;;;;;;;10.83;4.23;;;15.00;56.00;16.30;101043.00;;;;5032908;28;20172;-52
2024/01/23 01:32:56;;;;;;;7.63;4.00;;;15.00;56.10;16.30;100957.00;;;;5034919;28;20273;-53
2024/01/23 01:35:22;;;;;;;8.53;3.93;;;15.00;56.10;16.30;101037.00;;;;5032533;28;20191;-52
2024/01/23 01:37:48;;;;;;;9.10;3.80;;;15.00;56.00;16.30;101048.00;;;;5033842;28;20194;-53
2024/01/23 01:40:13;;;;;;;10.90;4.07;;;15.00;56.00;16.30;101048.00;;;;5033119;28;20649;-54
2024/01/23 01:42:43;;;;;;;10.33;4.23;;;15.10;56.00;16.30;101044.00;;;;5032785;28;20195;-52
2024/01/23 01:45:10;;;;;;;7.60;4.10;;;15.00;55.90;16.30;101052.00;;;;5032429;28;20206;-58
2024/01/23 01:47:38;;;;;;;7.83;3.73;;;15.00;55.90;16.30;101040.00;;;;5031777;28;20254;-53
2024/01/23 01:50:04;;;;;;;6.93;3.77;;;15.00;56.50;16.30;101066.00;;;;5032628;28;20206;-53
2024/01/23 01:52:30;;;;;;;7.53;4.03;;;15.00;55.90;16.30;101092.00;;;;5037227;28;20647;-52
2024/01/23 01:54:56;;;;;;;6.90;3.63;;;15.00;55.90;16.30;101073.00;;;;5034890;28;20236;-52
2024/01/23 01:57:22;;;;;;;9.47;4.23;;;14.90;55.70;16.20;101073.00;;;;5032710;28;20226;-52
2024/01/23 01:59:48;;;;;;;9.27;3.97;;;14.90;55.80;16.20;101073.00;;;;5017618;28;20188;-53
2024/01/23 02:02:14;;;;;;;6.43;3.60;;;14.90;55.80;16.20;101081.00;;;;5032882;28;20180;-53
2024/01/23 02:04:40;;;;;;;6.93;3.53;;;14.80;55.70;16.20;101075.00;;;;5037347;28;20208;-52
2024/01/23 02:07:06;;;;;;;9.03;3.83;;;14.80;55.70;16.20;101060.00;;;;5036642;28;20632;-52
2024/01/23 02:09:32;;;;;;;7.90;3.90;;;14.80;55.60;16.20;101074.00;;;;5029269;28;20181;-56
2024/01/23 02:11:59;;;;;;;7.40;3.87;;;14.90;55.70;16.20;101071.00;;;;5034662;28;20275;-52
2024/01/23 02:14:24;;;;;;;10.10;3.90;;;14.90;55.70;16.20;101070.00;;;;5032282;28;20720;-53
2024/01/23 02:16:50;;;;;;;7.83;3.50;;;14.80;55.60;16.10;101105.00;;;;5033383;28;20238;-52
2024/01/23 02:19:16;;;;;;;6.50;3.50;;;14.80;55.50;16.10;101090.00;;;;5032840;28;20658;-53
2024/01/23 02:21:42;;;;;;;7.63;3.43;;;14.70;55.20;16.00;101100.00;;;;5033879;28;20766;-53
2024/01/23 02:24:07;;;;;;;8.60;4.03;;;14.70;55.20;16.00;101105.00;;;;5032915;28;20610;-52
2024/01/23 02:26:33;;;;;;;6.77;3.27;;;14.70;55.20;16.00;101099.00;;;;5032378;28;20219;-53
2024/01/23 02:28:59;;;;;;;9.80;4.20;;;14.70;55.30;16.00;101122.00;;;;5034211;28;20198;-53
2024/01/23 02:31:25;;;;;;;7.90;3.47;;;14.70;55.20;16.00;101122.00;;;;5031499;28;20198;-53
2024/01/23 02:33:50;;;;;;;13.00;3.73;;;14.70;55.40;16.00;101146.00;;;;5034794;28;20249;-53
2024/01/23 02:36:16;;;;;;;7.07;3.60;;;14.70;55.10;16.00;101132.00;;;;5032243;28;20288;-52
2024/01/23 02:38:42;;;;;;;7.37;3.83;;;14.60;55.10;16.00;101151.00;;;;5033727;28;20187;-52
2024/01/23 02:41:07;;;;;;;8.60;3.63;;;14.60;55.10;15.90;101144.00;;;;5033005;28;20196;-58
2024/01/23 02:43:33;;;;;;;5.60;3.40;;;14.60;55.10;16.00;101149.00;;;;5030072;28;20206;-58
2024/01/23 02:45:59;;;;;;;6.73;3.40;;;14.70;54.60;16.00;101156.00;;;;5033903;28;20206;-58
2024/01/23 02:48:24;;;;;;;7.77;3.70;;;14.80;54.60;16.00;101162.00;;;;5032324;28;20175;-58
2024/01/23 02:50:50;;;;;;;8.23;3.57;;;14.90;54.40;16.10;101178.00;;;;5034457;28;20182;-57
2024/01/23 02:53:16;;;;;;;7.10;3.30;;;15.00;54.10;16.10;101175.00;;;;5032703;28;20194;-57
2024/01/23 02:55:42;;;;;;;8.13;3.80;;;15.10;53.80;16.10;101171.00;;;;5033851;28;20229;-58
2024/01/23 02:58:09;;;;;;;9.10;3.70;;;15.20;53.20;16.10;101178.00;;;;5033084;28;20221;-58
2024/01/23 03:00:37;;;;;;;6.77;3.70;;;15.30;53.60;16.20;101174.00;;;;5032791;28;20244;-58
2024/01/23 03:03:04;;;;;;;7.60;3.50;;;15.40;53.30;16.20;101168.00;;;;5033728;28;20186;-58
2024/01/23 03:05:29;;;;;;;7.27;3.10;;;15.60;52.90;16.30;101173.00;;;;5030522;28;20297;-58
2024/01/23 03:07:55;;;;;;;8.23;3.33;;;15.60;52.90;16.30;101186.00;;;;5031889;28;20258;-58
2024/01/23 03:10:21;;;;;;;7.10;3.20;;;15.60;52.80;16.40;101192.00;;;;5032082;28;20179;-58
2024/01/23 03:12:46;;;;;;;7.03;3.50;;;15.70;52.80;16.40;101193.00;;;;5034164;28;20214;-58
2024/01/23 03:15:12;;;;;;;9.00;3.23;;;15.60;52.60;16.40;101201.00;;;;5034911;28;20778;-58
2024/01/23 03:17:38;;;;;;;8.00;3.17;;;15.60;52.40;16.40;101206.00;;;;5035913;28;20187;-57
2024/01/23 03:20:05;;;;;;;7.53;3.40;;;15.70;52.50;16.50;101195.00;;;;5035954;28;20187;-58
2024/01/23 03:22:31;;;;;;;10.40;3.47;;;15.60;52.50;16.50;101203.00;;;;5036255;28;20184;-60
2024/01/23 03:24:56;;;;;;;6.17;3.07;;;15.60;52.40;16.50;101207.00;;;;5041324;28;20213;-58
2024/01/23 03:27:22;;;;;;;8.67;3.37;;;15.60;52.40;16.50;101235.00;;;;5036682;28;20262;-58
2024/01/23 03:29:51;;;;;;;8.90;3.50;;;15.60;52.50;16.50;101237.00;;;;5038359;28;20576;-57
2024/01/23 03:32:17;;;;;;;6.93;3.40;;;15.60;52.40;16.50;101224.00;;;;5034661;28;20610;-58
2024/01/23 03:34:43;;;;;;;7.37;3.27;;;15.60;52.50;16.50;101227.00;;;;5037215;28;20187;-58
2024/01/23 03:37:08;;;;;;;7.30;3.40;;;15.60;52.60;16.50;101248.00;;;;5036204;28;20310;-58
2024/01/23 03:39:34;;;;;;;8.77;3.20;;;15.60;52.70;16.50;101261.00;;;;5036932;28;20209;-58
2024/01/23 03:42:02;;;;;;;7.57;3.40;;;15.50;52.70;16.50;101252.00;;;;5042059;28;20197;-58
2024/01/23 03:44:28;;;;;;;7.30;3.70;;;15.50;52.80;16.40;101260.00;;;;5016334;28;20293;-57
2024/01/23 03:46:54;;;;;;;6.67;3.10;;;15.50;52.80;16.50;101252.00;;;;5038776;28;20285;-59
2024/01/23 03:49:21;;;;;;;5.50;3.23;;;15.50;53.00;16.50;101243.00;;;;5036206;28;20254;-59
2024/01/23 03:51:47;;;;;;;6.80;3.30;;;15.50;53.00;16.40;101265.00;;;;5036962;28;20225;-59
2024/01/23 03:54:13;;;;;;;6.53;3.13;;;15.50;53.00;16.40;101248.00;;;;5039444;28;20183;-57
2024/01/23 03:56:39;;;;;;;6.10;3.30;;;15.40;53.00;16.40;101263.00;;;;5038504;28;20207;-59
2024/01/23 03:59:04;;;;;;;7.33;3.37;;;15.40;53.00;16.40;101266.00;;;;5036686;28;20185;-57
2024/01/23 04:01:30;;;;;;;8.47;3.47;;;15.50;53.00;16.40;101277.00;;;;5034593;28;20179;-58
2024/01/23 04:03:56;;;;;;;5.67;3.23;;;15.50;53.00;16.40;101276.00;;;;5038335;28;20179;-58
2024/01/23 04:06:21;;;;;;;6.30;3.13;;;15.50;53.00;16.40;101287.00;;;;5035788;28;20251;-58
2024/01/23 04:08:47;;;;;;;8.07;3.60;;;15.40;53.10;16.40;101292.00;;;;5038096;28;20179;-59
2024/01/23 04:11:13;;;;;;;5.47;3.23;;;15.50;53.30;16.40;101294.00;;;;5035821;28;20183;-58
2024/01/23 04:13:38;;;;;;;7.70;3.17;;;15.40;53.20;16.40;101306.00;;;;5036618;28;20175;-58
2024/01/23 04:16:07;;;;;;;5.53;3.17;;;15.40;53.30;16.40;101299.00;;;;5036583;28;20792;-58
2024/01/23 04:18:33;;;;;;;8.00;3.13;;;15.30;53.40;16.30;101308.00;;;;5035863;28;20183;-58
2024/01/23 04:20:59;;;;;;;6.97;3.60;;;15.30;53.40;16.40;101317.00;;;;5037374;28;20190;-57
2024/01/23 04:23:25;;;;;;;8.57;3.50;;;15.30;53.30;16.30;101323.00;;;;5035534;28;20265;-58
2024/01/23 04:25:51;;;;;;;8.37;3.53;;;15.40;54.10;16.30;101323.00;;;;5036722;28;20213;-57
2024/01/23 04:28:16;;;;;;;8.60;3.47;;;15.30;53.90;16.30;101322.00;;;;5035472;28;20175;-58
2024/01/23 04:30:42;;;;;;;7.33;3.40;;;15.40;53.90;16.30;101330.00;;;;5036732;28;20183;-58
2024/01/23 04:33:08;;;;;;;8.93;3.40;;;15.40;54.00;16.40;101337.00;;;;5036146;28;20186;-58
2024/01/23 04:35:34;;;;;;;6.13;2.97;;;15.50;54.70;16.40;101340.00;;;;5035255;28;20201;-58
2024/01/23 04:38:00;;;;;;;6.13;3.10;;;15.60;54.60;16.40;101347.00;;;;5037237;28;20182;-58
2024/01/23 04:40:26;;;;;;;6.20;2.93;;;15.70;53.90;16.50;101347.00;;;;5035220;28;20195;-57
2024/01/23 04:42:52;;;;;;;8.60;3.10;;;15.80;53.70;16.60;101358.00;;;;5033871;28;20188;-57
2024/01/23 04:45:17;;;;;;;6.10;3.20;;;16.00;53.50;16.60;101352.00;;;;5034968;28;20288;-58
2024/01/23 04:47:43;;;;;;;8.77;3.20;;;16.10;53.30;16.70;101351.00;;;;5036692;28;20665;-59
2024/01/23 04:50:09;;;;;;;5.33;2.80;;;16.20;53.20;16.80;101364.00;;;;5035782;28;20261;-58
2024/01/23 04:52:35;;;;;;;6.33;3.20;;;16.50;53.00;16.90;101379.00;;;;5035419;28;20182;-58
2024/01/23 04:55:00;;;;;;;5.50;2.70;;;16.70;52.70;17.00;101387.00;;;;5036908;28;20190;-58
2024/01/23 04:57:31;;;;;;;6.03;3.00;;;16.80;52.40;17.10;101377.00;;;;5035116;28;20179;-58
2024/01/23 05:00:01;;;;;;;5.47;2.90;;;17.00;52.10;17.30;101381.00;;;;5031632;28;20545;-58
2024/01/23 05:02:27;;;;;;;5.70;3.00;;;17.10;52.10;17.40;101388.00;;;;5035025;28;20675;-58
2024/01/23 05:04:53;;;;;;;5.43;3.00;;;17.20;51.80;17.50;101385.00;;;;5031547;28;20203;-58
2024/01/23 05:07:19;;;;;;;5.10;2.80;;;17.30;51.70;17.60;101408.00;;;;5034871;28;20770;-58
2024/01/23 05:09:45;;;;;;;5.20;2.90;;;17.30;51.80;17.60;101405.00;;;;5036139;28;20180;-59
2024/01/23 05:12:11;;;;;;;5.37;3.07;;;17.30;52.00;17.70;101426.00;;;;5034968;28;20252;-58
2024/01/23 05:14:36;;;;;;;8.63;3.47;;;17.40;52.10;17.50;101414.00;;;;5034845;28;20213;-58
2024/01/23 05:17:02;;;;;;;6.47;3.00;;;17.50;52.40;17.80;101439.00;;;;5034673;28;20207;-58
2024/01/23 05:19:29;;;;;;;6.47;3.27;;;17.50;52.40;17.90;101432.00;;;;5034284;28;20673;-58
2024/01/23 05:21:55;;;;;;;6.97;3.03;;;17.50;52.50;17.90;101434.00;;;;5035039;28;20651;-58
2024/01/23 05:24:21;;;;;;;5.73;2.93;;;17.50;52.50;17.90;101441.00;;;;5033779;28;20241;-57
2024/01/23 05:26:47;;;;;;;6.20;3.10;;;17.60;52.60;18.00;101455.00;;;;5036432;28;20238;-60
2024/01/23 05:29:12;;;;;;;6.20;2.90;;;17.60;52.60;18.00;101457.00;;;;5034599;28;20263;-58
2024/01/23 05:31:38;;;;;;;10.20;3.50;;;17.60;52.60;18.10;101460.00;;;;5038957;28;20185;-61
2024/01/23 05:34:04;;;;;;;10.23;3.60;;;17.70;52.60;18.10;101461.00;;;;5041982;28;20177;-58
2024/01/23 05:36:30;;;;;;;7.23;3.20;;;17.70;52.50;18.10;101466.00;;;;5040709;28;20198;-56
2024/01/23 05:38:55;;;;;;;9.50;3.80;;;17.70;52.40;18.20;101478.00;;;;5036738;28;20249;-58
2024/01/23 05:41:21;;;;;;;10.90;3.93;;;17.70;52.50;18.20;101470.00;;;;5033823;28;20186;-57
2024/01/23 05:43:47;;;;;;;7.70;3.47;;;17.70;52.70;18.20;101497.00;;;;5034547;28;20241;-58
2024/01/23 05:46:13;;;;;;;9.67;3.67;;;17.70;52.70;18.20;101494.00;;;;5041100;28;20688;-58
2024/01/23 05:48:38;;;;;;;9.37;3.73;;;17.70;52.80;18.30;101496.00;;;;5035874;28;20220;-58
2024/01/23 05:51:04;;;;;;;8.63;3.40;;;17.70;52.70;18.30;101500.00;;;;5034723;28;20227;-58
2024/01/23 05:53:30;;;;;;;8.20;3.23;;;17.80;52.80;18.30;101508.00;;;;5034107;28;20194;-58
2024/01/23 05:55:56;;;;;;;10.43;3.50;;;17.80;52.80;18.30;101517.00;;;;5035942;28;20543;-58
2024/01/23 05:58:21;;;;;;;10.73;3.23;;;17.80;52.80;18.30;101516.00;;;;5034076;28;20174;-58
2024/01/23 06:00:47;;;;;;;8.37;3.10;;;17.70;52.80;18.40;101525.00;;;;5035672;28;20194;-57
2024/01/23 06:03:13;;;;;;;7.40;3.20;;;17.70;53.20;18.40;101534.00;;;;5033990;28;20568;-58
2024/01/23 06:05:39;;;;;;;7.67;3.00;;;17.70;53.30;18.40;101545.00;;;;5034162;28;20688;-57
2024/01/23 06:08:05;;;;;;;8.10;3.10;;;17.70;53.30;18.40;101541.00;;;;5035100;28;20199;-58
2024/01/23 06:10:31;;;;;;;6.37;3.10;;;17.80;53.30;18.40;101531.00;;;;5033584;28;20183;-58
2024/01/23 06:12:57;;;;;;;6.00;3.10;;;17.80;53.40;18.40;101541.00;;;;5033692;28;20181;-58
2024/01/23 06:15:23;;;;;;;6.73;3.10;;;17.80;53.30;18.40;101562.00;;;;5033568;28;20256;-58
2024/01/23 06:17:49;;;;;;;7.43;3.13;;;17.80;53.50;18.40;101563.00;;;;5036173;28;20245;-57
2024/01/23 06:20:15;;;;;;;5.93;3.23;;;17.80;53.60;18.40;101561.00;;;;5033052;28;20182;-58
2024/01/23 06:22:41;;;;;;;5.07;2.93;;;17.70;53.70;18.50;101569.00;;;;5035004;28;20193;-58
2024/01/23 06:25:09;;;;;;;5.10;2.90;;;17.80;53.70;18.40;101568.00;;;;5033138;28;20202;-57
2024/01/23 06:27:35;;;;;;;7.53;3.10;;;17.80;53.90;18.50;101566.00;;;;5032893;28;20652;-57
2024/01/23 06:30:01;;;;;;;6.33;2.93;;;17.80;53.80;18.50;101570.00;;;;5033803;28;20534;-58
2024/01/23 06:32:27;;;;;;;9.23;2.73;;;17.80;53.70;18.50;101574.00;;;;5032687;28;20186;-58
2024/01/23 06:34:53;;;;;;;4.60;2.80;;;17.80;53.80;18.50;101572.00;;;;5033026;28;20589;-58
2024/01/23 06:37:19;;;;;;;7.53;3.00;;;17.80;54.00;18.50;101584.00;;;;5033243;28;20205;-58
2024/01/23 06:39:45;;;;;;;5.10;2.60;;;17.80;54.20;18.60;101587.00;;;;5034937;28;20197;-58
2024/01/23 06:42:10;;;;;;;4.33;2.73;;;17.80;54.20;18.60;101578.00;;;;5033363;28;20206;-57
2024/01/23 06:44:36;;;;;;;4.67;2.80;;;17.80;54.20;18.60;101597.00;;;;5033509;28;20214;-58
2024/01/23 06:47:02;;;;;;;4.23;2.80;;;17.80;54.20;18.60;101600.00;;;;5035017;28;20202;-57
2024/01/23 06:49:28;;;;;;;8.23;3.33;;;17.80;54.20;18.60;101614.00;;;;5033394;28;20240;-58
2024/01/23 06:51:54;;;;;;;4.67;2.83;;;17.90;54.20;18.60;101613.00;;;;5039580;28;20229;-58
2024/01/23 06:54:19;;;;;;;5.50;2.80;;;17.90;54.30;18.60;101616.00;;;;5036940;28;20683;-58
2024/01/23 06:56:46;;;;;;;5.10;2.70;;;17.90;54.20;18.60;101627.00;;;;5039313;28;20207;-59
2024/01/23 06:59:12;;;;;;;4.20;2.67;;;17.90;54.20;18.60;101630.00;;;;5037945;28;20179;-58
2024/01/23 07:01:38;;;;;;;5.37;2.90;;;17.90;54.10;18.60;101632.00;;;;5036153;28;20175;-58
2024/01/23 07:04:04;;;;;;;4.53;2.73;;;17.90;54.10;18.60;101637.00;;;;5038122;28;20178;-57
2024/01/23 07:06:30;;;;;;;5.17;2.70;;;17.90;54.20;18.60;101637.00;;;;5034413;28;20206;-58
2024/01/23 07:08:57;;;;;;;4.23;2.47;;;18.00;54.20;18.60;101635.00;;;;5036806;28;20563;-58
2024/01/23 07:11:22;;;;;;;4.63;2.53;;;18.00;54.20;18.60;101654.00;;;;5036462;28;20174;-59
2024/01/23 07:13:48;;;;;;;4.17;2.40;;;18.00;54.20;18.60;101650.00;;;;5038886;28;20187;-58
2024/01/23 07:16:14;;;;;;;5.27;2.80;;;17.90;54.20;18.60;101637.00;;;;5036485;28;20205;-58
2024/01/23 07:18:40;;;;;;;4.80;2.33;;;17.90;54.20;18.60;101660.00;;;;5036512;28;20187;-58
2024/01/23 07:21:06;;;;;;;4.63;2.50;;;17.90;54.20;18.60;101649.00;;;;5036798;28;20648;-59
2024/01/23 07:23:34;;;;;;;4.30;2.60;;;17.90;54.30;18.60;101657.00;;;;5040392;28;20185;-59
2024/01/23 07:25:59;;;;;;;4.07;2.30;;;17.90;54.30;18.60;101657.00;;;;5038704;28;20217;-58
2024/01/23 07:28:25;;;;;;;3.37;2.70;;;18.00;54.30;18.60;101656.00;;;;5036958;28;20530;-58
2024/01/23 07:30:52;;;;;;;3.33;2.57;;;17.90;54.30;18.70;101658.00;;;;5037415;28;20179;-58
2024/01/23 07:33:17;;;;;;;3.67;2.50;;;17.90;54.30;18.70;101664.00;;;;5036450;28;20179;-58
2024/01/23 07:35:43;;;;;;;2.93;2.37;;;18.00;54.30;18.60;101667.00;;;;5038095;28;20687;-58
2024/01/23 07:38:11;;;;;;;4.20;2.40;;;18.00;54.40;18.60;101683.00;;;;5044326;28;20216;-58
2024/01/23 07:40:40;;;;;;;4.07;2.57;;;17.90;54.20;18.70;101679.00;;;;5037924;28;20212;-59
2024/01/23 07:43:06;;;;;;;4.70;2.50;;;17.90;54.30;18.70;101691.00;;;;5036780;28;20240;-59
2024/01/23 07:45:32;;;;;;;3.60;2.40;;;18.00;54.40;18.70;101698.00;;;;5045206;28;20368;-58
2024/01/23 07:47:58;;;;;;;3.70;2.40;;;18.00;54.30;18.70;101690.00;;;;5047539;28;20186;-58
2024/01/23 07:50:23;;;;;;;3.77;2.60;;;18.10;54.20;18.70;101686.00;;;;5035343;28;20178;-58
2024/01/23 07:52:49;;;;;;;4.23;2.40;;;18.00;54.20;18.70;101690.00;;;;5038384;28;20171;-58
2024/01/23 07:55:15;;;;;;;3.60;2.57;;;18.00;54.20;18.70;101694.00;;;;5036090;28;20229;-59
2024/01/23 07:57:41;;;;;;;3.00;2.23;;;18.00;54.30;18.70;101710.00;;;;5037333;28;20187;-59
2024/01/23 08:00:07;;;;;;;3.83;2.33;;;18.00;54.30;18.70;101706.00;;;;5036627;28;20553;-59
2024/01/23 08:02:33;;;;;;;2.40;2.20;;;18.00;54.90;18.70;101710.00;;;;5034930;28;20603;-63
2024/01/23 08:04:59;;;;;;;3.17;2.30;;;18.00;54.30;18.70;101716.00;;;;5038663;28;20675;-58
2024/01/23 08:07:25;;;;;;;6.07;2.40;;;18.00;54.40;18.70;101721.00;;;;5041381;28;20277;-59
2024/01/23 08:09:51;;;;;;;4.53;2.30;;;18.00;54.40;18.70;101729.00;;;;5037148;28;20270;-58
2024/01/23 08:12:17;;;;;;;3.90;2.10;;;18.00;54.50;18.70;101726.00;;;;5035479;28;20175;-59
2024/01/23 08:14:43;;;;;;;4.53;2.40;;;18.00;54.70;18.70;101734.00;;;;5036982;28;20602;-59
2024/01/23 08:17:10;;;;;;;3.60;2.17;;;18.00;54.60;18.70;101737.00;;;;5036537;28;20251;-58
2024/01/23 08:19:39;;;;;;;4.20;2.43;;;18.00;54.70;18.70;101748.00;;;;5035494;28;20182;-58
2024/01/23 08:22:05;;;;;;;3.97;2.40;;;18.10;54.70;18.70;101747.00;;;;5046862;28;20645;-58
2024/01/23 08:24:30;;;;;;;3.40;2.40;;;18.10;54.70;18.70;101754.00;;;;5022095;28;20210;-58
2024/01/23 08:26:56;;;;;;;3.27;2.50;;;18.10;54.80;18.70;101744.00;;;;5030132;28;20201;-58
2024/01/23 08:29:22;;;;;;;3.90;2.30;;;18.10;54.90;18.70;101754.00;;;;5023672;28;20183;-58
2024/01/23 08:31:47;;;;;;;3.20;2.20;;;18.10;55.00;18.70;101749.00;;;;5035877;28;20186;-58
2024/01/23 08:34:13;;;;;;;2.90;2.30;;;18.10;54.80;18.70;101764.00;;;;5032635;28;20545;-58
2024/01/23 08:36:39;;;;;;;4.60;2.30;;;18.20;54.80;18.80;101762.00;;;;5035479;28;20209;-58
2024/01/23 08:39:05;;;;;;;4.47;2.23;;;18.10;54.80;18.80;101763.00;;;;5036682;28;20174;-59
2024/01/23 08:41:30;;;;;;;2.83;2.10;;;18.10;54.80;18.80;101755.00;;;;5034326;28;20190;-57
2024/01/23 08:43:56;;;;;;;2.60;2.13;;;18.20;54.80;18.80;101771.00;;;;5036027;28;20196;-58
2024/01/23 08:46:22;;;;;;;3.73;2.30;;;18.20;54.70;18.80;101772.00;;;;5031359;28;20222;-59
2024/01/23 08:48:51;;;;;;;3.40;2.10;;;18.20;54.60;18.80;101755.00;;;;5036888;28;20178;-58
2024/01/23 08:51:17;;;;;;;3.60;2.23;;;18.20;54.70;18.80;101754.00;;;;5032768;28;20188;-57
2024/01/23 08:53:43;;;;;;;3.77;2.37;;;18.20;54.90;18.80;101750.00;;;;5035046;28;20179;-58
2024/01/23 08:56:08;;;;;;;3.13;2.23;;;18.20;55.10;18.90;101770.00;;;;5034683;28;20210;-53
2024/01/23 08:58:34;;;;;;;3.60;2.30;;;18.20;55.20;18.90;101781.00;;;;5032704;28;20175;-53
2024/01/23 09:01:00;;;;;;;3.77;2.70;;;18.30;55.30;18.90;101765.00;;;;5035324;28;20189;-54
2024/01/23 09:03:25;;;;;;;2.83;2.23;;;18.20;55.40;18.90;101776.00;;;;5034813;28;20183;-53
2024/01/23 09:05:51;;;;;;;2.97;2.20;;;18.20;55.70;18.90;101778.00;;;;5036784;28;20210;-54
2024/01/23 09:08:17;;;;;;;4.83;2.20;;;18.30;55.80;18.90;101786.00;;;;5033866;28;20179;-52
2024/01/23 09:10:43;;;;;;;3.00;2.10;;;18.20;55.80;18.90;101783.00;;;;5035792;28;20182;-54
2024/01/23 09:13:08;;;;;;;3.90;2.27;;;18.20;55.70;18.90;101787.00;;;;5035876;28;20186;-53
2024/01/23 09:15:35;;;;;;;3.37;2.27;;;18.20;55.80;18.90;101796.00;;;;5034142;28;20197;-54
2024/01/23 09:18:01;;;;;;;3.20;2.30;;;18.10;55.70;18.80;101802.00;;;;5040920;28;20186;-53
2024/01/23 09:20:26;;;;;;;5.30;2.20;;;18.10;55.80;18.80;101799.00;;;;5035634;28;20187;-59
2024/01/23 09:22:52;;;;;;;5.27;2.20;;;18.20;56.10;18.80;101808.00;;;;5036911;28;20264;-55
2024/01/23 09:25:18;;;;;;;4.07;2.40;;;18.10;56.00;18.80;101812.00;;;;5031322;28;20297;-55
2024/01/23 09:27:44;;;;;;;5.07;2.33;;;18.20;56.20;18.80;101802.00;;;;5036617;28;20171;-54
2024/01/23 09:30:12;;;;;;;3.43;2.20;;;18.10;56.10;18.80;101807.00;;;;5035612;28;20158;-54
2024/01/23 09:32:37;;;;;;;4.90;2.47;;;18.10;56.20;18.80;101797.00;;;;5039545;28;20178;-53
2024/01/23 09:35:03;;;;;;;2.80;2.00;;;18.10;56.20;18.80;101807.00;;;;5034476;28;20236;-53
2024/01/23 09:37:29;;;;;;;2.90;2.27;;;18.10;56.20;18.80;101813.00;;;;5034639;28;20187;-54
2024/01/23 09:39:55;;;;;;;3.00;2.10;;;18.10;56.20;18.80;101823.00;;;;5036375;28;20193;-53
2024/01/23 09:42:23;;;;;;;3.43;2.20;;;18.00;56.20;18.80;101813.00;;;;5033913;28;20228;-54
2024/01/23 09:44:51;;;;;;;2.40;2.20;;;18.00;56.00;18.80;101834.00;;;;5034950;28;20203;-53
2024/01/23 09:47:16;;;;;;;2.93;2.20;;;18.00;56.00;18.80;101829.00;;;;5000453;28;20319;-54
2024/01/23 09:49:42;;;;;;;3.70;2.07;;;18.00;56.00;18.70;101833.00;;;;5031829;28;20233;-54
2024/01/23 09:52:08;;;;;;;4.00;2.10;;;17.90;56.10;18.70;101824.00;;;;5021963;28;20659;-53
2024/01/23 09:54:34;;;;;;;3.43;2.10;;;17.90;56.20;18.70;101827.00;;;;5016747;28;20186;-54
2024/01/23 09:57:00;;;;;;;2.07;1.70;;;17.80;56.10;18.60;101824.00;;;;5037080;28;20291;-54
2024/01/23 09:59:25;;;;;;;3.60;2.30;;;17.80;56.10;18.60;101821.00;;;;5036618;28;20186;-57
2024/01/23 10:01:53;;;;;;;4.00;2.30;;;17.80;56.10;18.60;101811.00;;;;5045032;28;20243;-53
2024/01/23 10:04:19;;;;;;;3.60;2.30;;;17.80;56.10;18.60;101821.00;;;;5041884;28;20190;-53
2024/01/23 10:06:45;;;;;;;4.13;2.27;;;17.80;56.00;18.60;101816.00;;;;5034561;28;20579;-54
2024/01/23 10:09:12;;;;;;;3.13;2.20;;;17.70;56.00;18.50;101840.00;;;;5034245;28;20547;-53
2024/01/23 10:11:38;;;;;;;4.67;2.10;;;17.70;56.00;18.50;101838.00;;;;5047158;28;20233;-53
2024/01/23 10:14:05;;;;;;;2.73;1.93;;;17.70;56.10;18.50;101836.00;;;;5001923;28;20532;-53
2024/01/23 10:16:31;;;;;;;2.67;2.10;;;17.70;56.10;18.50;101846.00;;;;5033603;28;20194;-49
2024/01/23 10:18:57;;;;;;;4.17;2.27;;;17.60;56.20;18.50;101845.00;;;;5036837;28;20197;-50
2024/01/23 10:21:23;;;;;;;2.50;1.90;;;17.60;56.40;18.40;101843.00;;;;5029338;28;20598;-49
2024/01/23 10:23:50;;;;;;;3.37;2.23;;;17.60;56.30;18.40;101839.00;;;;5037321;28;20228;-50
2024/01/23 10:26:19;;;;;;;4.83;2.37;;;17.60;56.60;18.40;101845.00;;;;5036929;28;20221;-50
2024/01/23 10:28:45;;;;;;;4.70;2.13;;;17.60;56.60;18.40;101840.00;;;;5038429;28;20210;-50
2024/01/23 10:31:11;;;;;;;4.37;2.50;;;17.60;56.90;18.40;101829.00;;;;5038304;28;20671;-50
2024/01/23 10:33:37;;;;;;;3.37;2.40;;;17.60;56.90;18.40;101831.00;;;;5038471;28;20261;-50
2024/01/23 10:36:08;;;;;;;2.93;2.30;;;17.60;57.20;18.40;101839.00;;;;5039790;28;20240;-50
2024/01/23 10:38:36;;;;;;;4.50;2.40;;;17.60;57.80;18.40;101841.00;;;;5041534;28;20202;-50
2024/01/23 10:41:06;;;;;;;5.67;2.60;;;17.60;58.20;18.40;101836.00;;;;5037282;28;20644;-50